createdAt,value
2023-04-17T00:03:17.144Z,75.29
2023-04-17T00:08:10.007Z,75.26
2023-04-17T00:13:02.714Z,75.32
2023-04-17T00:17:55.738Z,75.39
2023-04-17T00:22:48.452Z,75.50
2023-04-17T00:27:42.015Z,75.69
2023-04-17T00:32:34.808Z,75.75
2023-04-17T00:37:27.548Z,75.70
2023-04-17T00:42:20.347Z,75.69
2023-04-17T00:47:14.250Z,75.93
2023-04-17T00:52:06.967Z,75.87
2023-04-17T01:02:29.068Z,76.10
2023-04-17T01:07:24.432Z,75.98
2023-04-17T01:12:21.162Z,76.04
2023-04-17T01:17:15.454Z,75.96
2023-04-17T01:22:08.895Z,76.03
2023-04-17T01:27:01.691Z,75.99
2023-04-17T01:31:54.524Z,76.31
2023-04-17T01:36:47.938Z,76.18
2023-04-17T01:41:40.654Z,76.38
2023-04-17T01:46:33.412Z,76.09
2023-04-17T01:51:26.131Z,76.31
2023-04-17T01:56:19.263Z,76.17
2023-04-17T02:01:12.146Z,76.24
2023-04-17T02:06:05.028Z,76.42
2023-04-17T02:10:57.765Z,76.69
2023-04-17T02:15:50.543Z,76.79
2023-04-17T02:20:43.327Z,77.11
2023-04-17T02:25:36.374Z,77.14
2023-04-17T02:30:29.796Z,76.86
2023-04-17T02:35:24.084Z,76.87
2023-04-17T02:40:17.315Z,76.64
2023-04-17T02:45:10.217Z,76.36
2023-04-17T02:50:03.131Z,76.51
2023-04-17T02:55:00.109Z,76.81
2023-04-17T02:59:53.614Z,76.63
2023-04-17T03:04:49.311Z,76.73
2023-04-17T03:09:42.932Z,76.81
2023-04-17T03:14:36.081Z,76.22
2023-04-17T03:19:28.799Z,76.27
2023-04-17T03:24:21.653Z,76.01
2023-04-17T03:29:14.613Z,75.86
2023-04-17T03:34:07.920Z,75.94
2023-04-17T03:39:00.644Z,75.77
2023-04-17T03:43:53.407Z,76.57
2023-04-17T03:48:46.213Z,76.57
2023-04-17T03:53:39.063Z,76.43
2023-04-17T03:58:34.856Z,76.67
2023-04-17T04:03:32.261Z,76.83
2023-04-17T04:08:25.729Z,76.48
2023-04-17T04:13:20.369Z,76.24
2023-04-17T04:18:18.211Z,76.36
2023-04-17T04:23:11.040Z,76.55
2023-04-17T04:28:05.763Z,76.65
2023-04-17T04:33:01.444Z,77.54
2023-04-17T04:37:55.033Z,78.18
2023-04-17T04:42:49.787Z,78.11
2023-04-17T04:47:49.875Z,78.23
2023-04-17T04:52:42.796Z,78.30
2023-04-17T04:57:47.444Z,78.33
2023-04-17T05:02:40.726Z,78.08
2023-04-17T05:07:34.837Z,77.80
2023-04-17T05:12:28.075Z,77.48
2023-04-17T05:17:20.986Z,77.31
2023-04-17T05:22:13.890Z,76.80
2023-04-17T05:27:20.250Z,76.56
2023-04-17T05:32:14.056Z,75.92
2023-04-17T05:37:15.221Z,75.61
2023-04-17T05:42:08.045Z,75.04
2023-04-17T05:47:01.068Z,74.38
2023-04-17T05:51:54.327Z,74.08
2023-04-17T05:56:47.521Z,74.08
2023-04-17T06:01:41.177Z,74.11
2023-04-17T06:06:33.953Z,73.78
2023-04-17T06:11:27.535Z,73.76
2023-04-17T06:16:20.564Z,73.78
2023-04-17T06:21:14.097Z,73.52
2023-04-17T06:26:06.919Z,73.71
2023-04-17T06:31:00.762Z,73.38
2023-04-17T06:35:53.575Z,73.31
2023-04-17T06:40:52.966Z,72.93
2023-04-17T06:45:46.166Z,72.45
2023-04-17T06:50:38.910Z,71.79
2023-04-17T06:55:32.362Z,71.84
2023-04-17T07:00:25.159Z,71.60
2023-04-17T07:05:17.919Z,71.33
2023-04-17T07:10:10.720Z,71.27
2023-04-17T07:15:03.463Z,71.15
2023-04-17T07:19:56.350Z,71.06
2023-04-17T07:24:49.061Z,71.02
2023-04-17T07:29:41.832Z,71.42
2023-04-17T07:34:34.627Z,71.60
2023-04-17T07:39:31.625Z,71.89
2023-04-17T07:44:24.350Z,72.17
2023-04-17T07:49:17.435Z,72.29
2023-04-17T07:54:10.577Z,72.41
2023-04-17T07:59:03.828Z,71.90
2023-04-17T08:03:56.737Z,71.61
2023-04-17T08:08:49.677Z,71.11
2023-04-17T08:13:42.405Z,70.80
2023-04-17T08:18:37.919Z,70.28
2023-04-17T08:23:31.150Z,68.84
2023-04-17T08:28:24.633Z,68.33
2023-04-17T08:33:18.633Z,67.22
2023-04-17T08:38:14.120Z,66.97
2023-04-17T08:43:07.412Z,66.02
2023-04-17T08:48:00.430Z,65.70
2023-04-17T08:52:53.232Z,66.00
2023-04-17T08:58:06.234Z,66.88
2023-04-17T09:03:00.120Z,67.48
2023-04-17T09:08:15.905Z,68.01
2023-04-17T09:13:09.114Z,68.30
2023-04-17T09:18:02.346Z,68.30
2023-04-17T09:23:00.319Z,68.13
2023-04-17T09:27:53.184Z,67.86
2023-04-17T09:32:46.270Z,67.04
2023-04-17T09:37:50.209Z,67.23
2023-04-17T09:42:55.302Z,67.40
2023-04-17T09:47:48.911Z,66.80
2023-04-17T09:52:41.670Z,66.73
2023-04-17T09:57:34.770Z,66.89
2023-04-17T10:02:28.258Z,66.69
2023-04-17T10:07:21.148Z,66.80
2023-04-17T10:12:19.255Z,66.56
2023-04-17T10:17:32.789Z,66.25
2023-04-17T10:22:25.513Z,66.16
2023-04-17T10:27:27.255Z,65.05
2023-04-17T10:32:20.288Z,62.54
2023-04-17T10:37:15.579Z,61.56
2023-04-17T10:42:08.502Z,60.86
2023-04-17T10:47:06.980Z,61.13
2023-04-17T10:51:59.719Z,60.86
2023-04-17T10:56:55.929Z,61.02
2023-04-17T11:01:48.629Z,61.25
2023-04-17T11:06:42.188Z,61.98
2023-04-17T11:11:44.087Z,62.07
2023-04-17T11:16:42.223Z,62.71
2023-04-17T11:21:34.975Z,63.19
2023-04-17T11:26:27.702Z,63.53
2023-04-17T11:31:21.581Z,63.97
2023-04-17T11:36:15.084Z,64.07
2023-04-17T11:41:10.144Z,64.20
2023-04-17T11:46:03.273Z,63.98
2023-04-17T11:51:01.258Z,63.46
2023-04-17T11:56:13.147Z,63.01
2023-04-17T12:01:06.727Z,62.35
2023-04-17T12:06:00.940Z,61.69
2023-04-17T12:10:53.668Z,60.78
2023-04-17T12:15:46.399Z,59.90
2023-04-17T12:20:39.605Z,59.55
2023-04-17T12:25:33.255Z,59.29
2023-04-17T12:30:29.543Z,58.68
2023-04-17T12:35:23.189Z,58.25
2023-04-17T12:40:17.974Z,57.56
2023-04-17T12:45:11.384Z,57.50
2023-04-17T12:50:04.233Z,57.14
2023-04-17T12:55:00.009Z,56.90
2023-04-17T12:59:52.767Z,57.03
2023-04-17T13:04:45.604Z,56.42
2023-04-17T13:09:38.734Z,55.91
2023-04-17T13:14:31.554Z,55.91
2023-04-17T13:19:24.344Z,55.44
2023-04-17T13:24:17.050Z,55.80
2023-04-17T13:29:09.940Z,56.14
2023-04-17T13:34:03.196Z,56.45
2023-04-17T13:38:55.943Z,56.61
2023-04-17T13:43:48.636Z,56.29
2023-04-17T13:48:41.316Z,56.33
2023-04-17T13:53:33.971Z,56.58
2023-04-17T13:58:26.644Z,56.82
2023-04-17T14:03:20.421Z,57.04
2023-04-17T14:08:13.297Z,56.90
2023-04-17T14:13:07.229Z,56.87
2023-04-17T14:18:00.203Z,56.67
2023-04-17T14:22:54.360Z,56.73
2023-04-17T14:27:47.074Z,56.88
2023-04-17T14:32:39.902Z,56.78
2023-04-17T14:37:32.913Z,56.94
2023-04-17T14:42:26.049Z,56.84
2023-04-17T14:47:19.596Z,56.54
2023-04-17T14:52:12.789Z,56.40
2023-04-17T14:57:05.792Z,56.72
2023-04-17T15:01:58.613Z,56.93
2023-04-17T15:06:51.370Z,56.43
2023-04-17T15:11:44.052Z,56.55
2023-04-17T15:16:36.837Z,57.07
2023-04-17T15:21:30.029Z,57.32
2023-04-17T15:26:23.790Z,57.43
2023-04-17T15:31:16.470Z,57.61
2023-04-17T15:36:09.224Z,57.60
2023-04-17T15:41:03.702Z,57.53
2023-04-17T15:45:56.575Z,57.33
2023-04-17T15:50:49.287Z,57.38
2023-04-17T15:55:42.349Z,57.26
2023-04-17T16:00:35.261Z,57.30
2023-04-17T16:05:27.956Z,57.16
2023-04-17T16:10:20.823Z,57.54
2023-04-17T16:15:14.980Z,57.72
2023-04-17T16:20:07.994Z,57.89
2023-04-17T16:25:01.836Z,58.00
2023-04-17T16:29:54.724Z,58.14
2023-04-17T16:34:47.808Z,58.17
2023-04-17T16:39:40.490Z,58.43
2023-04-17T16:44:33.584Z,58.81
2023-04-17T16:49:26.259Z,59.22
2023-04-17T16:54:21.704Z,59.81
2023-04-17T16:59:14.565Z,60.20
2023-04-17T17:04:09.032Z,60.66
2023-04-17T17:09:02.537Z,60.99
2023-04-17T17:13:55.264Z,61.17
2023-04-17T17:18:49.112Z,61.54
2023-04-17T17:23:42.215Z,61.88
2023-04-17T17:28:35.430Z,62.04
2023-04-17T17:33:28.173Z,62.14
2023-04-17T17:38:20.879Z,62.41
2023-04-17T17:43:13.621Z,62.63
2023-04-17T17:48:06.925Z,62.83
2023-04-17T17:53:00.050Z,62.96
2023-04-17T17:57:52.767Z,63.06
2023-04-17T18:02:45.782Z,63.26
2023-04-17T18:07:41.041Z,63.42
2023-04-17T18:12:34.286Z,63.62
2023-04-17T18:17:27.015Z,63.71
2023-04-17T18:22:20.814Z,63.87
2023-04-17T18:27:14.044Z,63.98
2023-04-17T18:32:06.708Z,64.17
2023-04-17T18:37:00.624Z,64.37
2023-04-17T18:41:53.329Z,64.36
2023-04-17T18:46:46.054Z,64.66
2023-04-17T18:51:39.396Z,64.72
2023-04-17T18:56:32.575Z,64.98
2023-04-17T19:01:25.409Z,65.08
2023-04-17T19:06:18.175Z,65.27
2023-04-17T19:11:11.039Z,65.31
2023-04-17T19:16:03.853Z,65.48
2023-04-17T19:20:56.720Z,65.43
2023-04-17T19:25:55.118Z,65.67
2023-04-17T19:30:47.876Z,65.82
2023-04-17T19:35:41.268Z,66.02
2023-04-17T19:40:34.419Z,66.10
2023-04-17T19:45:27.191Z,66.37
2023-04-17T19:50:19.939Z,66.58
2023-04-17T19:55:12.718Z,66.75
2023-04-17T20:00:05.935Z,66.96
2023-04-17T20:05:05.428Z,67.26
2023-04-17T20:09:58.162Z,67.57
2023-04-17T20:14:52.855Z,67.61
2023-04-17T20:19:46.073Z,67.90
2023-04-17T20:24:38.821Z,67.99
2023-04-17T20:29:32.181Z,68.26
2023-04-17T20:34:25.756Z,68.27
2023-04-17T20:39:18.590Z,68.56
2023-04-17T20:44:12.209Z,68.77
2023-04-17T20:49:05.230Z,68.91
2023-04-17T20:53:58.002Z,68.91
2023-04-17T20:58:50.785Z,69.11
2023-04-17T21:03:44.125Z,69.13
2023-04-17T21:08:37.095Z,69.06
2023-04-17T21:13:30.838Z,69.32
2023-04-17T21:18:23.875Z,69.40
2023-04-17T21:23:17.288Z,69.30
2023-04-17T21:28:10.067Z,69.48
2023-04-17T21:33:02.812Z,69.76
2023-04-17T21:37:55.670Z,69.94
2023-04-17T21:42:48.360Z,70.35
2023-04-17T21:47:41.082Z,70.54
2023-04-17T21:52:33.808Z,70.96
2023-04-17T21:57:26.478Z,71.31
2023-04-17T22:02:19.243Z,71.42
2023-04-17T22:07:12.006Z,71.70
2023-04-17T22:12:14.417Z,71.73
2023-04-17T22:17:07.302Z,71.85
2023-04-17T22:22:36.728Z,72.01
2023-04-17T22:28:24.589Z,72.22
2023-04-17T22:34:12.988Z,72.30
2023-04-17T22:40:01.287Z,72.41
2023-04-17T22:45:49.504Z,72.63
2023-04-17T22:51:37.926Z,72.64
2023-04-17T22:57:25.892Z,72.67
2023-04-17T23:03:14.064Z,72.94
2023-04-17T23:09:02.603Z,72.92
2023-04-17T23:14:13.592Z,72.98
2023-04-17T23:19:06.504Z,73.19
2023-04-17T23:23:59.241Z,73.22
2023-04-17T23:28:51.951Z,73.40
2023-04-17T23:33:44.613Z,73.50
2023-04-17T23:38:37.301Z,73.46
2023-04-17T23:43:30.349Z,73.54
2023-04-17T23:48:23.186Z,73.59
2023-04-17T23:53:15.979Z,73.69
2023-04-17T23:58:09.102Z,73.73
